createdAt,value
2019-01-26T00:00:18.381Z,100241.27
2019-01-26T00:02:49.672Z,100253.58
2019-01-26T00:05:19.421Z,100253.75
2019-01-26T00:07:49.176Z,100243.66
2019-01-26T00:10:18.865Z,100253.79
2019-01-26T00:12:48.540Z,100241.48
2019-01-26T00:15:18.374Z,100248.42
2019-01-26T00:17:48.127Z,100241.35
2019-01-26T00:20:17.884Z,100238.11
2019-01-26T00:22:47.566Z,100236.09
2019-01-26T00:25:17.247Z,100247.02
2019-01-26T00:27:46.925Z,100244.15
2019-01-26T00:30:16.931Z,100246.08
2019-01-26T00:32:46.616Z,100238.78
2019-01-26T00:35:17.344Z,100247.14
2019-01-26T00:37:47.085Z,100236.27
2019-01-26T00:40:17.114Z,100238.75
2019-01-26T00:42:46.787Z,100234.57
2019-01-26T00:45:16.724Z,100246.44
2019-01-26T00:47:46.400Z,100239.36
2019-01-26T00:50:16.330Z,100237.09
2019-01-26T00:52:46.010Z,100233.57
2019-01-26T00:55:15.685Z,100226.88
2019-01-26T00:57:45.441Z,100222.02
2019-01-26T01:00:15.801Z,100224.44
2019-01-26T01:02:45.752Z,100228.94
2019-01-26T01:05:15.798Z,100220.56
2019-01-26T01:07:45.879Z,100224.75
2019-01-26T01:10:16.060Z,100217.88
2019-01-26T01:12:45.886Z,100216.41
2019-01-26T01:15:18.043Z,100203.77
2019-01-26T01:17:47.792Z,100208.33
2019-01-26T01:20:18.226Z,100205.42
2019-01-26T01:22:47.981Z,100224.30
2019-01-26T01:25:17.875Z,100207.69
2019-01-26T01:27:47.524Z,100196.70
2019-01-26T01:30:19.499Z,100201.34
2019-01-26T01:32:49.795Z,100202.09
2019-01-26T01:35:19.725Z,100193.88
2019-01-26T01:37:49.490Z,100188.16
2019-01-26T01:40:19.746Z,100188.28
2019-01-26T01:42:49.512Z,100195.97
2019-01-26T01:45:19.728Z,100195.42
2019-01-26T01:47:49.474Z,100194.88
2019-01-26T01:50:19.426Z,100201.21
2019-01-26T01:52:49.190Z,100202.95
2019-01-26T01:55:18.857Z,100204.55
2019-01-26T01:57:48.536Z,100197.00
2019-01-26T02:00:20.405Z,100206.73
2019-01-26T02:02:50.487Z,100206.94
2019-01-26T02:05:20.189Z,100203.80
2019-01-26T02:07:50.068Z,100206.25
2019-01-26T02:10:21.290Z,100206.06
2019-01-26T02:12:51.113Z,100210.34
2019-01-26T02:15:20.951Z,100203.31
2019-01-26T02:17:50.713Z,100201.00
2019-01-26T02:20:22.286Z,100190.94
2019-01-26T02:22:51.958Z,100191.33
2019-01-26T02:25:21.772Z,100196.42
2019-01-26T02:27:51.444Z,100188.19
2019-01-26T02:30:23.370Z,100183.76
2019-01-26T02:32:54.684Z,100184.51
2019-01-26T02:35:24.440Z,100184.96
2019-01-26T02:37:54.249Z,100174.20
2019-01-26T02:40:23.932Z,100178.09
2019-01-26T02:42:53.589Z,100170.25
2019-01-26T02:45:23.269Z,100162.94
2019-01-26T02:47:53.986Z,100162.39
2019-01-26T02:50:23.662Z,100166.63
2019-01-26T02:52:53.348Z,100168.02
2019-01-26T02:55:23.019Z,100159.95
2019-01-26T02:57:52.708Z,100160.34
2019-01-26T03:00:23.554Z,100156.36
2019-01-26T03:02:53.312Z,100160.55
2019-01-26T03:05:22.998Z,100160.55
2019-01-26T03:07:52.687Z,100156.36
2019-01-26T03:10:23.316Z,100154.97
2019-01-26T03:12:53.069Z,100154.52
2019-01-26T03:15:24.034Z,100154.52
2019-01-26T03:17:53.714Z,100157.02
2019-01-26T03:20:23.640Z,100148.24
2019-01-26T03:22:53.326Z,100141.86
2019-01-26T03:25:23.034Z,100138.72
2019-01-26T03:27:52.753Z,100143.66
2019-01-26T03:30:24.519Z,100134.03
2019-01-26T03:32:54.198Z,100137.44
2019-01-26T03:35:23.962Z,100121.53
2019-01-26T03:37:53.638Z,100123.57
2019-01-26T03:40:23.819Z,100120.78
2019-01-26T03:42:53.488Z,100118.58
2019-01-26T03:45:23.483Z,100118.03
2019-01-26T03:47:53.153Z,100116.94
2019-01-26T03:50:22.905Z,100113.89
2019-01-26T03:52:52.682Z,100108.12
2019-01-26T03:55:22.710Z,100108.12
2019-01-26T03:57:52.402Z,100118.23
2019-01-26T04:00:24.503Z,100116.48
2019-01-26T04:02:54.936Z,100112.20
2019-01-26T04:05:24.669Z,100102.29
2019-01-26T04:07:54.510Z,100106.11
2019-01-26T04:10:24.273Z,100099.34
2019-01-26T04:12:54.312Z,100091.86
2019-01-26T04:15:24.105Z,100091.86
2019-01-26T04:17:53.857Z,100097.79
2019-01-26T04:20:23.669Z,100088.61
2019-01-26T04:22:53.367Z,100091.14
2019-01-26T04:25:23.182Z,100092.05
2019-01-26T04:27:52.870Z,100090.40
2019-01-26T04:30:23.286Z,100084.83
2019-01-26T04:32:52.966Z,100082.23
2019-01-26T04:35:22.663Z,100079.19
2019-01-26T04:37:52.559Z,100082.62
2019-01-26T04:40:23.217Z,100079.47
2019-01-26T04:42:52.906Z,100075.65
2019-01-26T04:45:24.073Z,100071.86
2019-01-26T04:47:53.833Z,100068.81
2019-01-26T04:50:23.558Z,100063.17
2019-01-26T04:52:53.383Z,100067.87
2019-01-26T04:55:23.281Z,100061.39
2019-01-26T04:57:53.061Z,100060.58
2019-01-26T05:00:31.025Z,100044.08
2019-01-26T05:03:06.115Z,100050.20
2019-01-26T05:05:36.065Z,100048.81
2019-01-26T05:08:05.843Z,100050.95
2019-01-26T05:10:35.522Z,100041.33
2019-01-26T05:13:05.368Z,100030.11
2019-01-26T05:15:35.065Z,100028.36
2019-01-26T05:18:05.328Z,100039.92
2019-01-26T05:20:35.001Z,100037.13
2019-01-26T05:23:05.714Z,100038.92
2019-01-26T05:25:35.464Z,100042.81
2019-01-26T05:28:05.779Z,100033.24
2019-01-26T05:30:35.541Z,100035.03
2019-01-26T05:33:06.029Z,100034.64
2019-01-26T05:35:37.908Z,100041.02
2019-01-26T05:38:07.577Z,100035.48
2019-01-26T05:40:37.272Z,100032.89
2019-01-26T05:43:07.423Z,100038.44
2019-01-26T05:45:37.344Z,100039.27
2019-01-26T05:48:07.114Z,100033.63
2019-01-26T05:50:36.804Z,100035.28
2019-01-26T05:53:06.568Z,100033.92
2019-01-26T05:55:36.264Z,100024.10
2019-01-26T05:58:05.955Z,100025.02
2019-01-26T06:00:36.540Z,100030.03
2019-01-26T06:03:06.365Z,100039.36
2019-01-26T06:05:36.064Z,100031.33
2019-01-26T06:08:05.817Z,100032.34
2019-01-26T06:10:35.791Z,100030.03
2019-01-26T06:13:05.558Z,100028.98
2019-01-26T06:15:35.324Z,100015.66
2019-01-26T06:18:06.033Z,100017.32
2019-01-26T06:20:35.716Z,100016.86
2019-01-26T06:23:05.422Z,100022.41
2019-01-26T06:25:35.107Z,100013.81
2019-01-26T06:28:05.769Z,100011.58
2019-01-26T06:30:35.524Z,100020.20
2019-01-26T06:33:05.422Z,100024.36
2019-01-26T06:35:36.401Z,100025.09
2019-01-26T06:38:06.160Z,100021.50
2019-01-26T06:40:35.838Z,100019.45
2019-01-26T06:43:05.693Z,100024.64
2019-01-26T06:45:35.381Z,100021.95
2019-01-26T06:48:05.500Z,100023.25
2019-01-26T06:50:35.194Z,100024.19
2019-01-26T06:53:05.399Z,100028.44
2019-01-26T06:55:35.492Z,100028.44
2019-01-26T06:58:05.543Z,100030.28
2019-01-26T07:00:35.369Z,100030.19
2019-01-26T07:03:05.761Z,100029.93
2019-01-26T07:05:58.314Z,100029.93
2019-01-26T07:08:27.997Z,100029.38
2019-01-26T07:10:57.665Z,100030.03
2019-01-26T07:13:27.445Z,100029.74
2019-01-26T07:15:59.187Z,100033.98
2019-01-26T07:18:28.948Z,100032.14
2019-01-26T07:20:58.772Z,100030.03
2019-01-26T07:23:30.029Z,100034.38
2019-01-26T07:25:59.805Z,100021.97
2019-01-26T07:28:29.561Z,100034.47
2019-01-26T07:30:59.228Z,100030.20
2019-01-26T07:33:29.256Z,100028.06
2019-01-26T07:35:58.923Z,100034.64
2019-01-26T07:38:29.131Z,100040.28
2019-01-26T07:40:58.870Z,100035.84
2019-01-26T07:43:28.749Z,100030.66
2019-01-26T07:45:58.548Z,100034.55
2019-01-26T07:48:28.215Z,100049.19
2019-01-26T07:50:57.980Z,100037.69
2019-01-26T07:53:27.726Z,100038.44
2019-01-26T07:55:57.405Z,100035.84
2019-01-26T07:58:27.091Z,100036.13
2019-01-26T08:00:57.129Z,100031.39
2019-01-26T08:03:26.813Z,100038.08
2019-01-26T08:05:56.569Z,100044.46
2019-01-26T08:08:26.252Z,100039.38
2019-01-26T08:10:55.924Z,100042.71
2019-01-26T08:13:25.597Z,100046.21
2019-01-26T08:15:55.264Z,100041.41
2019-01-26T08:18:24.961Z,100043.16
2019-01-26T08:20:54.868Z,100049.65
2019-01-26T08:23:24.544Z,100041.02
2019-01-26T08:25:54.236Z,100042.88
2019-01-26T08:28:23.913Z,100050.10
2019-01-26T08:30:53.592Z,100053.54
2019-01-26T08:33:23.292Z,100043.06
2019-01-26T08:35:52.967Z,100042.16
2019-01-26T08:38:22.654Z,100047.80
2019-01-26T08:40:52.481Z,100042.61
2019-01-26T08:43:23.141Z,100042.44
2019-01-26T08:45:52.820Z,100040.49
2019-01-26T08:48:22.509Z,100038.64
2019-01-26T08:50:52.200Z,100037.34
2019-01-26T08:53:21.887Z,100039.45
2019-01-26T08:58:41.551Z,100041.51
2019-01-26T09:01:11.249Z,100037.41
2019-01-26T09:04:03.899Z,100039.20
2019-01-26T09:06:41.621Z,100050.48
2019-01-26T09:09:13.025Z,100047.61
2019-01-26T09:11:42.800Z,100050.69
2019-01-26T09:14:12.488Z,100051.43
2019-01-26T09:16:42.342Z,100043.65
2019-01-26T09:19:12.025Z,100048.73
2019-01-26T09:21:41.720Z,100049.09
2019-01-26T09:24:11.524Z,100053.47
2019-01-26T09:26:41.205Z,100047.44
2019-01-26T09:29:10.902Z,100061.51
2019-01-26T09:31:40.575Z,100052.73
2019-01-26T09:34:10.264Z,100050.39
2019-01-26T09:36:40.125Z,100056.88
2019-01-26T09:39:11.520Z,100054.67
2019-01-26T09:41:41.277Z,100052.17
2019-01-26T09:44:11.047Z,100056.52
2019-01-26T09:46:40.728Z,100050.39
2019-01-26T09:49:10.431Z,100052.91
2019-01-26T09:51:40.184Z,100053.92
2019-01-26T09:54:10.013Z,100048.84
2019-01-26T09:56:40.042Z,100052.62
2019-01-26T09:59:09.867Z,100055.22
2019-01-26T10:01:39.551Z,100050.14
2019-01-26T10:04:09.216Z,100050.59
2019-01-26T10:06:39.494Z,100042.42
2019-01-26T10:09:12.779Z,100046.80
2019-01-26T10:11:42.544Z,100050.86
2019-01-26T10:14:12.236Z,100046.41
2019-01-26T10:16:42.038Z,100047.91
2019-01-26T10:19:11.713Z,100054.39
2019-01-26T10:21:41.685Z,100048.27
2019-01-26T10:24:11.496Z,100054.75
2019-01-26T10:26:41.264Z,100050.02
2019-01-26T10:29:11.216Z,100042.89
2019-01-26T10:31:41.812Z,100047.91
2019-01-26T10:34:11.589Z,100048.16
2019-01-26T10:36:57.440Z,100046.05
2019-01-26T10:39:27.177Z,100040.87
2019-01-26T10:42:21.673Z,100046.87
2019-01-26T10:44:51.456Z,100044.56
2019-01-26T10:47:21.137Z,100038.27
2019-01-26T10:49:50.828Z,100036.42
2019-01-26T10:52:20.508Z,100029.36
2019-01-26T10:54:50.182Z,100029.36
2019-01-26T10:57:19.871Z,100035.75
2019-01-26T10:59:49.541Z,100027.97
2019-01-26T11:02:19.308Z,100034.94
2019-01-26T11:04:49.066Z,100028.91
2019-01-26T11:07:18.745Z,100017.03
2019-01-26T11:09:49.673Z,100022.16
2019-01-26T11:12:20.478Z,100015.28
2019-01-26T11:14:50.180Z,100007.50
2019-01-26T11:17:19.856Z,100005.30
2019-01-26T11:19:49.532Z,100009.64
2019-01-26T11:22:19.240Z,100002.70
2019-01-26T11:24:49.149Z,100005.65
2019-01-26T11:27:18.842Z,99997.20
2019-01-26T11:29:48.600Z,99995.35
2019-01-26T11:32:18.284Z,99994.44
2019-01-26T11:34:48.272Z,99991.84
2019-01-26T11:37:17.937Z,99984.16
2019-01-26T11:39:54.442Z,99987.31
2019-01-26T11:42:24.119Z,99978.59
2019-01-26T11:45:16.387Z,99978.69
2019-01-26T11:47:46.414Z,99971.75
2019-01-26T11:50:22.064Z,99970.91
2019-01-26T11:52:51.736Z,99966.18
2019-01-26T11:55:32.659Z,99954.22
2019-01-26T11:58:02.335Z,99956.46
2019-01-26T12:00:49.356Z,99959.16
2019-01-26T12:03:26.392Z,99944.41
2019-01-26T12:06:00.389Z,99947.28
2019-01-26T12:08:30.080Z,99946.72
2019-01-26T12:10:59.752Z,99953.59
2019-01-26T12:13:29.435Z,99945.70
2019-01-26T12:15:59.131Z,99944.69
2019-01-26T12:18:28.802Z,99937.82
2019-01-26T12:20:58.479Z,99929.58
2019-01-26T12:23:28.169Z,99925.59
2019-01-26T12:25:57.915Z,99929.12
2019-01-26T12:28:27.596Z,99928.95
2019-01-26T12:30:57.463Z,99924.67
2019-01-26T12:36:20.856Z,99917.73
2019-01-26T12:38:50.603Z,99918.08
2019-01-26T12:41:20.348Z,99912.08
2019-01-26T12:43:50.065Z,99906.80
2019-01-26T12:46:25.111Z,99907.98
2019-01-26T12:49:00.004Z,99905.84
2019-01-26T12:51:29.678Z,99901.70
2019-01-26T12:53:59.371Z,99889.93
2019-01-26T12:56:29.123Z,99892.42
2019-01-26T12:58:59.073Z,99891.69
2019-01-26T13:01:28.832Z,99886.87
2019-01-26T13:03:58.579Z,99886.67
2019-01-26T13:06:28.316Z,99888.42
2019-01-26T13:11:42.903Z,99882.60
2019-01-26T13:14:12.777Z,99876.01
2019-01-26T13:16:42.470Z,99875.17
2019-01-26T13:19:12.535Z,99869.63
2019-01-26T13:21:42.270Z,99858.48
2019-01-26T13:24:12.043Z,99858.48
2019-01-26T13:26:41.731Z,99854.97
2019-01-26T13:29:11.485Z,99841.67
2019-01-26T13:31:41.223Z,99847.98
2019-01-26T13:34:10.895Z,99848.82
2019-01-26T13:36:40.579Z,99851.31
2019-01-26T13:39:10.527Z,99848.72
2019-01-26T13:41:40.283Z,99846.23
2019-01-26T13:44:09.983Z,99840.66
2019-01-26T13:46:39.660Z,99836.03
2019-01-26T13:49:09.339Z,99834.63
2019-01-26T13:51:39.013Z,99823.89
2019-01-26T13:54:08.786Z,99814.08
2019-01-26T13:56:38.462Z,99810.19
2019-01-26T13:59:08.129Z,99806.30
2019-01-26T14:01:37.797Z,99797.56
2019-01-26T14:04:07.546Z,99798.97
2019-01-26T14:06:38.267Z,99794.72
2019-01-26T14:09:09.027Z,99788.48
2019-01-26T14:11:38.767Z,99779.67
2019-01-26T14:14:08.531Z,99782.16
2019-01-26T14:16:38.385Z,99779.11
2019-01-26T14:19:08.078Z,99781.24
2019-01-26T14:21:37.757Z,99771.32
2019-01-26T14:24:07.432Z,99768.27
2019-01-26T14:26:37.122Z,99769.11
2019-01-26T14:29:06.787Z,99759.08
2019-01-26T14:31:36.543Z,99764.27
2019-01-26T14:34:06.241Z,99759.80
2019-01-26T14:36:35.953Z,99760.27
2019-01-26T14:39:08.797Z,99750.89
2019-01-26T14:41:38.489Z,99751.83
2019-01-26T14:44:09.123Z,99743.09
2019-01-26T14:46:38.805Z,99743.66
2019-01-26T14:49:08.476Z,99739.66
2019-01-26T14:51:38.151Z,99731.07
2019-01-26T14:54:08.848Z,99729.84
2019-01-26T14:56:38.599Z,99728.55
2019-01-26T14:59:08.283Z,99721.03
2019-01-26T15:01:37.999Z,99727.02
2019-01-26T15:04:07.679Z,99716.83
2019-01-26T15:06:37.435Z,99715.98
2019-01-26T15:09:09.297Z,99717.05
2019-01-26T15:11:39.049Z,99710.85
2019-01-26T15:14:08.726Z,99712.98
2019-01-26T15:16:38.557Z,99706.50
2019-01-26T15:19:08.198Z,99697.50
2019-01-26T15:21:37.877Z,99704.83
2019-01-26T15:24:07.621Z,99700.58
2019-01-26T15:26:37.288Z,99690.55
2019-01-26T15:29:07.041Z,99690.20
2019-01-26T15:31:36.699Z,99688.07
2019-01-26T15:34:06.630Z,99681.58
2019-01-26T15:36:36.370Z,99683.91
2019-01-26T15:39:08.287Z,99682.16
2019-01-26T15:41:37.945Z,99673.91
2019-01-26T15:44:07.606Z,99673.91
2019-01-26T15:46:37.269Z,99665.75
2019-01-26T15:49:06.927Z,99664.09
2019-01-26T15:51:36.587Z,99667.77
2019-01-26T15:54:06.332Z,99658.91
2019-01-26T15:56:36.067Z,99654.07
2019-01-26T15:59:05.877Z,99646.28
2019-01-26T16:01:50.096Z,99649.56
2019-01-26T16:04:19.795Z,99643.64
2019-01-26T16:06:49.560Z,99638.91
2019-01-26T16:09:19.244Z,99635.59
2019-01-26T16:11:49.260Z,99627.08
2019-01-26T16:14:18.960Z,99621.63
2019-01-26T16:16:48.600Z,99624.59
2019-01-26T16:19:18.276Z,99617.00
2019-01-26T16:21:47.932Z,99621.39
2019-01-26T16:24:17.609Z,99615.25
2019-01-26T16:26:47.306Z,99612.04
2019-01-26T16:29:16.972Z,99608.34
2019-01-26T16:31:46.641Z,99600.10
2019-01-26T16:34:16.320Z,99598.23
2019-01-26T16:36:46.055Z,99596.09
2019-01-26T16:39:15.804Z,99588.70
2019-01-26T16:41:45.463Z,99583.63
2019-01-26T16:44:15.133Z,99578.16
2019-01-26T16:46:44.816Z,99573.59
2019-01-26T16:49:14.512Z,99562.38
2019-01-26T16:51:44.184Z,99564.52
2019-01-26T16:54:13.855Z,99554.36
2019-01-26T16:56:48.672Z,99554.60
2019-01-26T16:59:19.797Z,99542.13
2019-01-26T17:02:07.265Z,99541.74
2019-01-26T17:04:36.955Z,99536.20
2019-01-26T17:07:06.724Z,99527.78
2019-01-26T17:09:36.465Z,99519.20
2019-01-26T17:12:07.153Z,99519.77
2019-01-26T17:14:37.081Z,99520.11
2019-01-26T17:17:06.836Z,99523.66
2019-01-26T17:19:36.575Z,99505.39
2019-01-26T17:22:06.858Z,99509.28
2019-01-26T17:24:36.723Z,99499.83
2019-01-26T17:27:06.597Z,99495.86
2019-01-26T17:29:36.283Z,99486.67
2019-01-26T17:32:06.779Z,99487.97
2019-01-26T17:34:36.593Z,99481.37
2019-01-26T17:37:06.360Z,99469.58
2019-01-26T17:39:36.042Z,99465.34
2019-01-26T17:42:06.036Z,99468.66
2019-01-26T17:44:35.723Z,99462.75
2019-01-26T17:47:05.612Z,99460.88
2019-01-26T17:49:35.551Z,99457.11
2019-01-26T17:52:07.428Z,99453.45
2019-01-26T17:54:37.101Z,99445.20
2019-01-26T17:57:06.787Z,99447.80
2019-01-26T17:59:36.772Z,99445.20
2019-01-26T18:02:06.604Z,99433.53
2019-01-26T18:04:36.491Z,99420.11
2019-01-26T18:07:06.487Z,99420.22
2019-01-26T18:09:36.258Z,99415.70
2019-01-26T18:12:06.208Z,99410.31
2019-01-26T18:14:35.973Z,99398.37
2019-01-26T18:17:05.962Z,99402.27
2019-01-26T18:19:35.642Z,99398.37
2019-01-26T18:22:05.638Z,99387.66
2019-01-26T18:24:35.388Z,99388.47
2019-01-26T18:27:05.185Z,99388.47
2019-01-26T18:29:34.860Z,99385.98
2019-01-26T18:32:05.888Z,99371.38
2019-01-26T18:34:35.874Z,99365.12
2019-01-26T18:37:05.939Z,99357.84
2019-01-26T18:39:35.679Z,99347.81
2019-01-26T18:42:05.503Z,99342.16
2019-01-26T18:44:35.473Z,99344.50
2019-01-26T18:47:05.951Z,99339.31
2019-01-26T18:49:35.890Z,99335.88
2019-01-26T18:52:05.845Z,99325.63
2019-01-26T18:54:35.554Z,99323.75
2019-01-26T18:57:05.732Z,99321.85
2019-01-26T18:59:35.683Z,99301.94
2019-01-26T19:02:05.556Z,99306.03
2019-01-26T19:04:42.087Z,99300.27
2019-01-26T19:07:12.015Z,99308.19
2019-01-26T19:09:42.559Z,99292.52
2019-01-26T19:12:12.549Z,99302.08
2019-01-26T19:14:42.236Z,99285.69
2019-01-26T19:17:11.914Z,99280.62
2019-01-26T19:19:41.608Z,99286.98
2019-01-26T19:22:12.519Z,99284.53
2019-01-26T19:24:42.210Z,99288.67
2019-01-26T19:27:11.957Z,99277.92
2019-01-26T19:29:42.628Z,99281.23
2019-01-26T19:32:12.556Z,99271.58
2019-01-26T19:34:42.371Z,99263.59
2019-01-26T19:37:12.193Z,99257.45
2019-01-26T19:39:41.877Z,99254.27
2019-01-26T19:42:11.552Z,99250.75
2019-01-26T19:44:41.244Z,99240.72
2019-01-26T19:47:10.922Z,99233.52
2019-01-26T19:49:40.591Z,99230.72
2019-01-26T19:52:10.347Z,99233.27
2019-01-26T19:54:40.088Z,99228.33
2019-01-26T19:57:09.833Z,99221.59
2019-01-26T19:59:40.503Z,99208.54
2019-01-26T20:02:10.317Z,99212.77
2019-01-26T20:04:40.056Z,99206.16
2019-01-26T20:07:09.876Z,99195.78
2019-01-26T20:09:39.768Z,99190.25
2019-01-26T20:12:09.589Z,99186.70
2019-01-26T20:14:39.262Z,99177.16
2019-01-26T20:17:09.027Z,99177.16
2019-01-26T20:19:39.013Z,99171.72
2019-01-26T20:22:08.769Z,99158.30
2019-01-26T20:24:38.448Z,99152.40
2019-01-26T20:27:09.045Z,99151.81
2019-01-26T20:29:39.023Z,99143.20
2019-01-26T20:32:08.792Z,99135.33
2019-01-26T20:34:38.484Z,99128.72
2019-01-26T20:37:08.217Z,99129.89
2019-01-26T20:39:37.900Z,99121.86
2019-01-26T20:42:07.650Z,99112.78
2019-01-26T20:44:37.330Z,99114.79
2019-01-26T20:47:07.159Z,99100.65
2019-01-26T20:49:36.836Z,99098.05
2019-01-26T20:52:06.657Z,99088.39
2019-01-26T20:54:37.475Z,99077.55
2019-01-26T20:57:07.292Z,99075.30
2019-01-26T20:59:37.049Z,99068.81
2019-01-26T21:02:08.695Z,99063.63
2019-01-26T21:04:38.363Z,99067.17
2019-01-26T21:07:08.120Z,99055.84
2019-01-26T21:09:37.801Z,99055.63
2019-01-26T21:12:07.477Z,99041.11
2019-01-26T21:14:37.154Z,99039.94
2019-01-26T21:17:06.910Z,99035.45
2019-01-26T21:19:37.644Z,99020.01
2019-01-26T21:22:07.325Z,99013.28
2019-01-26T21:24:37.006Z,99019.89
2019-01-26T21:27:06.855Z,99013.41
2019-01-26T21:29:36.517Z,99011.05
2019-01-26T21:32:06.361Z,99003.73
2019-01-26T21:34:36.033Z,99000.68
2019-01-26T21:37:05.788Z,98997.47
2019-01-26T21:39:35.463Z,98995.13
2019-01-26T21:42:05.624Z,98990.64
2019-01-26T21:44:35.308Z,98986.16
2019-01-26T21:47:05.575Z,98985.82
2019-01-26T21:49:35.264Z,98974.61
2019-01-26T21:52:05.490Z,98979.43
2019-01-26T21:54:35.503Z,98977.55
2019-01-26T21:57:05.634Z,98966.59
2019-01-26T21:59:35.338Z,98967.89
2019-01-26T22:02:05.762Z,98960.34
2019-01-26T22:04:35.456Z,98961.98
2019-01-26T22:07:05.221Z,98949.84
2019-01-26T22:09:34.912Z,98949.84
2019-01-26T22:12:05.630Z,98942.78
2019-01-26T22:14:35.676Z,98943.35
2019-01-26T22:17:05.397Z,98936.16
2019-01-26T22:19:35.073Z,98930.64
2019-01-26T22:22:04.988Z,98922.73
2019-01-26T22:24:34.661Z,98910.11
2019-01-26T22:27:04.494Z,98899.98
2019-01-26T22:29:34.179Z,98903.73
2019-01-26T22:32:04.364Z,98899.25
2019-01-26T22:34:34.044Z,98899.84
2019-01-26T22:37:03.766Z,98897.95
2019-01-26T22:39:33.511Z,98882.05
2019-01-26T22:42:03.209Z,98882.77
2019-01-26T22:44:32.884Z,98874.98
2019-01-26T22:47:02.556Z,98864.98
2019-01-26T22:49:32.268Z,98860.98
2019-01-26T22:52:01.946Z,98856.26
2019-01-26T22:54:31.612Z,98850.50
2019-01-26T22:57:01.287Z,98850.50
2019-01-26T22:59:30.986Z,98830.09
2019-01-26T23:02:01.058Z,98836.00
2019-01-26T23:04:55.735Z,98821.03
2019-01-26T23:07:35.606Z,98813.72
2019-01-26T23:10:45.459Z,98802.54
2019-01-26T23:14:03.911Z,98804.67
2019-01-26T23:17:10.702Z,98797.24
2019-01-26T23:20:17.405Z,98788.67
2019-01-26T23:23:19.453Z,98789.47
2019-01-26T23:26:10.950Z,98791.73
2019-01-26T23:29:27.762Z,98775.91
2019-01-26T23:31:57.436Z,98769.42
2019-01-26T23:34:27.182Z,98772.72
2019-01-26T23:36:56.852Z,98762.34
2019-01-26T23:39:26.669Z,98747.26
2019-01-26T23:41:56.499Z,98755.86
2019-01-26T23:44:26.171Z,98742.30
2019-01-26T23:46:55.856Z,98736.42
2019-01-26T23:49:25.527Z,98736.19
2019-01-26T23:51:55.194Z,98726.41
2019-01-26T23:54:24.939Z,98713.91
2019-01-26T23:56:54.677Z,98707.66
2019-01-26T23:59:24.336Z,98709.39
